Time,TemperatureF,DewpointF,PressureIn,WindDirection,WindDirectionDegrees,WindSpeedMPH,WindSpeedGustMPH,Humidity,HourlyPrecipIn,Conditions,Clouds,dailyrainin,SoftwareType,DateUTC
2013-02-12 00:00:00,23.8,18.2,29.72,West,264,10.0,24.0,79,0.00,,,0.00,VWS V14.01,2013-02-12 06:00:00,
2013-02-12 00:05:00,23.9,18.0,29.72,West,260,7.0,16.0,78,0.00,,,0.00,VWS V14.01,2013-02-12 06:05:00,
2013-02-12 00:10:00,23.8,17.9,29.73,West,277,5.0,19.0,78,0.00,,,0.00,VWS V14.01,2013-02-12 06:10:00,
2013-02-12 00:15:00,23.4,17.5,29.73,West,265,10.0,19.0,78,0.00,,,0.00,VWS V14.01,2013-02-12 06:15:00,
2013-02-12 00:20:00,23.1,17.2,29.73,WNW,287,9.0,17.0,78,0.00,,,0.00,VWS V14.01,2013-02-12 06:20:00,
2013-02-12 00:25:00,22.9,17.0,29.73,West,280,4.0,17.0,78,0.00,,,0.00,VWS V14.01,2013-02-12 06:25:00,
2013-02-12 00:30:00,22.8,17.2,29.72,West,270,6.0,17.0,79,0.00,,,0.00,VWS V14.01,2013-02-12 06:30:00,
2013-02-12 00:35:00,22.8,17.2,29.73,West,271,9.0,15.0,79,0.00,,,0.00,VWS V14.01,2013-02-12 06:35:00,
2013-02-12 00:40:00,22.9,17.3,29.73,WNW,292,10.0,16.0,79,0.00,,,0.00,VWS V14.01,2013-02-12 06:40:00,
2013-02-12 00:45:00,22.9,17.3,29.72,West,269,13.0,18.0,79,0.00,,,0.00,VWS V14.01,2013-02-12 06:45:00,
2013-02-12 00:50:00,22.9,17.0,29.72,West,265,11.0,18.0,78,0.00,,,0.00,VWS V14.01,2013-02-12 06:50:00,
2013-02-12 00:55:00,22.9,17.3,29.72,WSW,250,10.0,19.0,79,0.00,,,0.00,VWS V14.01,2013-02-12 06:55:00,
2013-02-12 01:00:00,22.8,16.9,29.73,West,278,6.0,19.0,78,0.00,,,0.00,VWS V14.01,2013-02-12 07:00:00,
2013-02-12 01:05:00,22.7,17.1,29.73,WNW,288,9.0,16.0,79,0.00,,,0.00,VWS V14.01,2013-02-12 07:05:00,
2013-02-12 01:10:00,22.5,16.9,29.72,WSW,254,9.0,16.0,79,0.00,,,0.00,VWS V14.01,2013-02-12 07:10:00,
2013-02-12 01:15:00,22.7,17.1,29.72,West,266,7.0,20.0,79,0.00,,,0.00,VWS V14.01,2013-02-12 07:15:00,
2013-02-12 01:20:00,22.7,17.1,29.72,WNW,285,5.0,18.0,79,0.00,,,0.00,VWS V14.01,2013-02-12 07:20:00,
2013-02-12 01:25:00,22.5,16.9,29.72,WNW,285,10.0,18.0,79,0.00,,,0.00,VWS V14.01,2013-02-12 07:25:00,
2013-02-12 01:30:00,22.1,16.5,29.73,NW,306,9.0,18.0,79,0.00,,,0.00,VWS V14.01,2013-02-12 07:30:00,
2013-02-12 01:35:00,21.6,16.3,29.73,WNW,300,7.0,11.0,80,0.00,,,0.00,VWS V14.01,2013-02-12 07:35:00,
2013-02-12 01:40:00,21.2,15.9,29.73,WNW,292,8.0,11.0,80,0.00,,,0.00,VWS V14.01,2013-02-12 07:40:00,
2013-02-12 01:45:00,21.2,16.2,29.73,West,279,11.0,16.0,81,0.00,,,0.00,VWS V14.01,2013-02-12 07:45:00,
2013-02-12 01:50:00,21.1,16.1,29.73,WNW,283,7.0,13.0,81,0.00,,,0.00,VWS V14.01,2013-02-12 07:50:00,
2013-02-12 01:55:00,21.0,16.0,29.73,WNW,297,7.0,13.0,81,0.00,,,0.00,VWS V14.01,2013-02-12 07:55:00,
2013-02-12 02:00:00,20.6,15.6,29.74,WNW,300,8.0,13.0,81,0.00,,,0.00,VWS V14.01,2013-02-12 08:00:00,
2013-02-12 02:05:00,20.3,15.6,29.74,NW,306,6.0,12.0,82,0.00,,,0.00,VWS V14.01,2013-02-12 08:05:00,
2013-02-12 02:10:00,20.1,15.4,29.74,WNW,302,6.0,12.0,82,0.00,,,0.00,VWS V14.01,2013-02-12 08:10:00,
2013-02-12 02:15:00,20.0,15.6,29.74,WNW,298,8.0,12.0,83,0.00,,,0.00,VWS V14.01,2013-02-12 08:15:00,
2013-02-12 02:20:00,20.0,15.6,29.74,WNW,294,9.0,12.0,83,0.00,,,0.00,VWS V14.01,2013-02-12 08:20:00,
2013-02-12 02:25:00,20.0,15.6,29.74,WNW,302,5.0,12.0,83,0.00,,,0.00,VWS V14.01,2013-02-12 08:25:00,
2013-02-12 02:30:00,20.0,15.6,29.75,WNW,300,7.0,12.0,83,0.00,,,0.00,VWS V14.01,2013-02-12 08:30:00,
2013-02-12 02:35:00,20.1,15.7,29.75,WNW,294,7.0,11.0,83,0.00,,,0.00,VWS V14.01,2013-02-12 08:35:00,
2013-02-12 02:40:00,20.2,15.8,29.75,WNW,284,9.0,12.0,83,0.00,,,0.00,VWS V14.01,2013-02-12 08:40:00,
2013-02-12 02:45:00,20.4,16.0,29.75,NW,311,7.0,12.0,83,0.00,,,0.00,VWS V14.01,2013-02-12 08:45:00,
2013-02-12 02:50:00,20.3,15.9,29.75,West,273,6.0,10.0,83,0.00,,,0.00,VWS V14.01,2013-02-12 08:50:00,
2013-02-12 02:55:00,20.2,15.8,29.75,NW,306,8.0,13.0,83,0.00,,,0.00,VWS V14.01,2013-02-12 08:55:00,
2013-02-12 03:00:00,20.2,15.8,29.76,WNW,296,7.0,15.0,83,0.00,,,0.00,VWS V14.01,2013-02-12 09:00:00,
2013-02-12 03:05:00,20.2,15.8,29.76,West,281,4.0,14.0,83,0.00,,,0.00,VWS V14.01,2013-02-12 09:05:00,
2013-02-12 03:10:00,20.2,15.8,29.76,NW,313,8.0,14.0,83,0.00,,,0.00,VWS V14.01,2013-02-12 09:10:00,
2013-02-12 03:15:00,20.1,15.7,29.76,West,281,6.0,16.0,83,0.00,,,0.00,VWS V14.01,2013-02-12 09:15:00,
2013-02-12 03:20:00,20.0,15.6,29.75,WNW,298,7.0,13.0,83,0.00,,,0.00,VWS V14.01,2013-02-12 09:20:00,
2013-02-12 03:25:00,20.0,15.6,29.76,WNW,302,6.0,13.0,83,0.00,,,0.00,VWS V14.01,2013-02-12 09:25:00,
2013-02-12 03:30:00,20.0,15.6,29.76,WNW,288,6.0,13.0,83,0.00,,,0.00,VWS V14.01,2013-02-12 09:30:00,
2013-02-12 03:35:00,19.9,15.8,29.75,WNW,290,11.0,13.0,84,0.00,,,0.00,VWS V14.01,2013-02-12 09:35:00,
2013-02-12 03:40:00,19.9,15.8,29.76,WNW,298,7.0,13.0,84,0.00,,,0.00,VWS V14.01,2013-02-12 09:40:00,
2013-02-12 03:45:00,19.8,15.4,29.75,NW,317,9.0,13.0,83,0.00,,,0.00,VWS V14.01,2013-02-12 09:45:00,
2013-02-12 03:50:00,19.7,15.6,29.75,West,281,11.0,13.0,84,0.00,,,0.00,VWS V14.01,2013-02-12 09:50:00,
2013-02-12 03:55:00,19.8,15.7,29.75,WNW,296,7.0,16.0,84,0.00,,,0.00,VWS V14.01,2013-02-12 09:55:00,
2013-02-12 04:00:00,19.9,15.8,29.75,WNW,294,7.0,16.0,84,0.00,,,0.00,VWS V14.01,2013-02-12 10:00:00,
2013-02-12 04:05:00,19.9,15.8,29.75,West,275,6.0,14.0,84,0.00,,,0.00,VWS V14.01,2013-02-12 10:05:00,
2013-02-12 04:10:00,19.7,15.6,29.75,West,279,10.0,14.0,84,0.00,,,0.00,VWS V14.01,2013-02-12 10:10:00,
2013-02-12 04:15:00,19.6,15.5,29.75,NW,317,5.0,14.0,84,0.00,,,0.00,VWS V14.01,2013-02-12 10:15:00,
2013-02-12 04:20:00,19.4,15.3,29.75,West,262,6.0,9.0,84,0.00,,,0.00,VWS V14.01,2013-02-12 10:20:00,
2013-02-12 04:25:00,19.3,15.2,29.75,WNW,292,9.0,11.0,84,0.00,,,0.00,VWS V14.01,2013-02-12 10:25:00,
2013-02-12 04:30:00,19.2,15.1,29.75,WNW,284,5.0,15.0,84,0.00,,,0.00,VWS V14.01,2013-02-12 10:30:00,
2013-02-12 04:35:00,19.0,14.9,29.75,WNW,282,6.0,12.0,84,0.00,,,0.00,VWS V14.01,2013-02-12 10:35:00,
2013-02-12 04:40:00,18.8,14.7,29.75,WNW,290,6.0,12.0,84,0.00,,,0.00,VWS V14.01,2013-02-12 10:40:00,
2013-02-12 04:45:00,18.6,14.8,29.75,WNW,290,6.0,12.0,85,0.00,,,0.00,VWS V14.01,2013-02-12 10:45:00,
2013-02-12 04:50:00,18.6,14.8,29.76,WNW,293,5.0,9.0,85,0.00,,,0.00,VWS V14.01,2013-02-12 10:50:00,
2013-02-12 04:55:00,18.5,14.7,29.76,WNW,292,4.0,10.0,85,0.00,,,0.00,VWS V14.01,2013-02-12 10:55:00,
2013-02-12 05:00:00,18.4,14.6,29.76,West,277,5.0,10.0,85,0.00,,,0.00,VWS V14.01,2013-02-12 11:00:00,
2013-02-12 05:05:00,18.4,14.6,29.76,WNW,286,6.0,11.0,85,0.00,,,0.00,VWS V14.01,2013-02-12 11:05:00,
2013-02-12 05:10:00,18.5,14.9,29.76,West,277,5.0,11.0,86,0.00,,,0.00,VWS V14.01,2013-02-12 11:10:00,
2013-02-12 05:15:00,18.8,15.2,29.76,WNW,292,5.0,15.0,86,0.00,,,0.00,VWS V14.01,2013-02-12 11:15:00,
2013-02-12 05:20:00,18.9,15.3,29.75,WNW,292,5.0,9.0,86,0.00,,,0.00,VWS V14.01,2013-02-12 11:20:00,
2013-02-12 05:25:00,19.1,15.5,29.75,WNW,292,8.0,12.0,86,0.00,,,0.00,VWS V14.01,2013-02-12 11:25:00,
2013-02-12 05:30:00,19.3,15.7,29.75,West,271,2.0,12.0,86,0.00,,,0.00,VWS V14.01,2013-02-12 11:30:00,
2013-02-12 05:35:00,19.5,15.9,29.76,WNW,284,4.0,8.0,86,0.00,,,0.00,VWS V14.01,2013-02-12 11:35:00,
2013-02-12 05:40:00,19.6,15.8,29.76,West,269,2.0,11.0,85,0.00,,,0.00,VWS V14.01,2013-02-12 11:40:00,
2013-02-12 05:45:00,19.9,16.3,29.76,WNW,295,3.0,11.0,86,0.00,,,0.00,VWS V14.01,2013-02-12 11:45:00,
2013-02-12 05:50:00,20.2,16.6,29.77,West,269,10.0,10.0,86,0.00,,,0.00,VWS V14.01,2013-02-12 11:50:00,
2013-02-12 05:55:00,20.3,16.4,29.77,WNW,301,7.0,13.0,85,0.00,,,0.00,VWS V14.01,2013-02-12 11:55:00,
2013-02-12 06:00:00,19.8,15.7,29.77,West,277,5.0,13.0,84,0.00,,,0.00,VWS V14.01,2013-02-12 12:00:00,
2013-02-12 06:04:00,19.4,15.3,29.77,WNW,284,4.0,8.0,84,0.00,,,0.00,VWS V14.01,2013-02-12 12:04:00,
2013-02-12 06:09:00,19.2,15.4,29.78,WNW,297,7.0,12.0,85,0.00,,,0.00,VWS V14.01,2013-02-12 12:09:00,
2013-02-12 06:14:00,18.9,15.1,29.78,West,277,2.0,12.0,85,0.00,,,0.00,VWS V14.01,2013-02-12 12:14:00,
2013-02-12 06:15:00,18.9,15.1,29.78,WNW,282,6.0,12.0,85,0.00,,,0.00,VWS V14.01,2013-02-12 12:15:00,
2013-02-12 06:19:00,18.9,15.1,29.77,WNW,303,8.0,12.0,85,0.00,,,0.00,VWS V14.01,2013-02-12 12:19:00,
2013-02-12 06:24:00,18.8,15.0,29.78,WNW,288,6.0,12.0,85,0.00,,,0.00,VWS V14.01,2013-02-12 12:24:00,
2013-02-12 06:29:00,18.7,15.1,29.78,WNW,284,3.0,12.0,86,0.00,,,0.00,VWS V14.01,2013-02-12 12:29:00,
2013-02-12 06:30:00,18.6,14.8,29.77,WNW,302,7.0,12.0,85,0.00,,,0.00,VWS V14.01,2013-02-12 12:30:00,
2013-02-12 06:34:00,18.6,15.0,29.78,West,278,4.0,10.0,86,0.00,,,0.00,VWS V14.01,2013-02-12 12:34:00,
2013-02-12 06:39:00,18.6,15.0,29.78,WNW,290,3.0,10.0,86,0.00,,,0.00,VWS V14.01,2013-02-12 12:39:00,
2013-02-12 06:44:00,18.7,15.1,29.78,West,270,6.0,11.0,86,0.00,,,0.00,VWS V14.01,2013-02-12 12:44:00,
2013-02-12 06:45:00,18.7,15.1,29.78,WNW,284,6.0,11.0,86,0.00,,,0.00,VWS V14.01,2013-02-12 12:45:00,
2013-02-12 06:49:00,18.8,15.2,29.77,WNW,285,3.0,11.0,86,0.00,,,0.00,VWS V14.01,2013-02-12 12:49:00,
2013-02-12 06:55:00,19.0,15.7,29.78,WNW,290,6.0,12.0,87,0.00,,,0.00,VWS V14.01,2013-02-12 12:55:00,
2013-02-12 07:00:00,19.1,15.5,29.78,West,277,5.0,13.0,86,0.00,,,0.00,VWS V14.01,2013-02-12 13:00:00,
2013-02-12 07:05:00,19.4,16.1,29.78,West,277,7.0,11.0,87,0.00,,,0.00,VWS V14.01,2013-02-12 13:05:00,
2013-02-12 07:10:00,19.5,15.9,29.77,West,274,5.0,11.0,86,0.00,,,0.00,VWS V14.01,2013-02-12 13:10:00,
2013-02-12 07:15:00,19.6,16.0,29.78,West,268,4.0,11.0,86,0.00,,,0.00,VWS V14.01,2013-02-12 13:15:00,
2013-02-12 07:20:00,19.8,16.5,29.78,West,264,4.0,12.0,87,0.00,,,0.00,VWS V14.01,2013-02-12 13:20:00,
2013-02-12 07:25:00,20.0,16.7,29.77,West,270,2.0,12.0,87,0.00,,,0.00,VWS V14.01,2013-02-12 13:25:00,
2013-02-12 07:30:00,20.4,17.1,29.77,West,271,4.0,12.0,87,0.00,,,0.00,VWS V14.01,2013-02-12 13:30:00,
2013-02-12 07:35:00,21.1,17.8,29.77,West,278,7.0,14.0,87,0.00,,,0.00,VWS V14.01,2013-02-12 13:35:00,
2013-02-12 07:40:00,21.3,17.7,29.77,West,277,7.0,14.0,86,0.00,,,0.00,VWS V14.01,2013-02-12 13:40:00,
2013-02-12 07:45:00,21.4,17.5,29.77,WSW,239,10.0,14.0,85,0.00,,,0.00,VWS V14.01,2013-02-12 13:45:00,
2013-02-12 07:50:00,21.4,17.5,29.77,West,269,11.0,12.0,85,0.00,,,0.00,VWS V14.01,2013-02-12 13:50:00,
2013-02-12 07:54:00,21.2,17.3,29.77,WNW,296,6.0,13.0,85,0.00,,,0.00,VWS V14.01,2013-02-12 13:54:00,
2013-02-12 07:59:00,21.0,17.1,29.77,NW,308,7.0,13.0,85,0.00,,,0.00,VWS V14.01,2013-02-12 13:59:00,
2013-02-12 08:00:00,20.9,17.0,29.77,WNW,290,6.0,13.0,85,0.00,,,0.00,VWS V14.01,2013-02-12 14:00:00,
2013-02-12 08:04:00,20.6,16.7,29.78,WNW,296,7.0,10.0,85,0.00,,,0.00,VWS V14.01,2013-02-12 14:04:00,
2013-02-12 08:09:00,20.2,16.3,29.78,WNW,298,2.0,10.0,85,0.00,,,0.00,VWS V14.01,2013-02-12 14:09:00,
2013-02-12 08:14:00,19.9,16.0,29.78,WNW,298,4.0,10.0,85,0.00,,,0.00,VWS V14.01,2013-02-12 14:14:00,
2013-02-12 08:15:00,19.9,16.0,29.78,WNW,299,5.0,10.0,85,0.00,,,0.00,VWS V14.01,2013-02-12 14:15:00,
2013-02-12 08:19:00,19.9,16.3,29.79,WNW,283,8.0,9.0,86,0.00,,,0.00,VWS V14.01,2013-02-12 14:19:00,
2013-02-12 08:24:00,20.0,16.4,29.79,WNW,300,10.0,16.0,86,0.00,,,0.00,VWS V14.01,2013-02-12 14:24:00,
2013-02-12 08:29:00,20.5,16.9,29.79,West,279,8.0,16.0,86,0.00,,,0.00,VWS V14.01,2013-02-12 14:29:00,
2013-02-12 08:30:00,20.6,17.0,29.79,WNW,294,7.0,16.0,86,0.00,,,0.00,VWS V14.01,2013-02-12 14:30:00,
2013-02-12 08:34:00,20.6,17.0,29.79,WNW,288,10.0,13.0,86,0.00,,,0.00,VWS V14.01,2013-02-12 14:34:00,
2013-02-12 08:39:00,20.6,17.0,29.79,WNW,288,10.0,13.0,86,0.00,,,0.00,VWS V14.01,2013-02-12 14:39:00,
2013-02-12 08:44:00,21.1,17.2,29.79,WSW,243,8.0,15.0,85,0.00,,,0.00,VWS V14.01,2013-02-12 14:44:00,
2013-02-12 08:45:00,21.1,17.2,29.79,WNW,286,8.0,18.0,85,0.00,,,0.00,VWS V14.01,2013-02-12 14:45:00,
2013-02-12 08:49:00,21.6,17.7,29.79,WSW,252,8.0,23.0,85,0.00,,,0.00,VWS V14.01,2013-02-12 14:49:00,
2013-02-12 08:54:00,21.6,17.4,29.79,West,277,8.0,23.0,84,0.00,,,0.00,VWS V14.01,2013-02-12 14:54:00,
2013-02-12 08:59:00,21.8,17.6,29.79,WSW,244,12.0,23.0,84,0.00,,,0.00,VWS V14.01,2013-02-12 14:59:00,
2013-02-12 09:00:00,21.8,17.6,29.80,WNW,286,8.0,23.0,84,0.00,,,0.00,VWS V14.01,2013-02-12 15:00:00,
2013-02-12 09:04:00,21.7,17.3,29.79,WNW,288,14.0,18.0,83,0.00,,,0.00,VWS V14.01,2013-02-12 15:04:00,
2013-02-12 09:09:00,22.1,17.6,29.79,West,263,6.0,25.0,83,0.00,,,0.00,VWS V14.01,2013-02-12 15:09:00,
2013-02-12 09:14:00,22.6,18.1,29.79,West,281,7.0,25.0,83,0.00,,,0.00,VWS V14.01,2013-02-12 15:14:00,
2013-02-12 09:15:00,22.6,17.9,29.79,West,263,10.0,25.0,82,0.00,,,0.00,VWS V14.01,2013-02-12 15:15:00,
2013-02-12 09:19:00,22.6,17.9,29.79,West,273,9.0,15.0,82,0.00,,,0.00,VWS V14.01,2013-02-12 15:19:00,
2013-02-12 09:24:00,22.6,17.9,29.79,WNW,290,8.0,18.0,82,0.00,,,0.00,VWS V14.01,2013-02-12 15:24:00,
2013-02-12 09:29:00,22.5,17.5,29.79,West,275,11.0,18.0,81,0.00,,,0.00,VWS V14.01,2013-02-12 15:29:00,
2013-02-12 09:30:00,22.5,17.5,29.79,West,264,7.0,18.0,81,0.00,,,0.00,VWS V14.01,2013-02-12 15:30:00,
2013-02-12 09:34:00,22.6,17.9,29.79,WSW,254,16.0,17.0,82,0.00,,,0.00,VWS V14.01,2013-02-12 15:34:00,
2013-02-12 09:39:00,22.9,18.1,29.79,WNW,302,7.0,17.0,82,0.00,,,0.00,VWS V14.01,2013-02-12 15:39:00,
2013-02-12 09:44:00,23.3,18.3,29.79,West,266,10.0,18.0,81,0.00,,,0.00,VWS V14.01,2013-02-12 15:44:00,
2013-02-12 09:45:00,23.3,18.3,29.79,WNW,287,11.0,18.0,81,0.00,,,0.00,VWS V14.01,2013-02-12 15:45:00,
2013-02-12 09:49:00,23.4,18.4,29.79,West,281,13.0,15.0,81,0.00,,,0.00,VWS V14.01,2013-02-12 15:49:00,
2013-02-12 09:54:00,23.2,18.2,29.79,WSW,244,8.0,16.0,81,0.00,,,0.00,VWS V14.01,2013-02-12 15:54:00,
2013-02-12 09:59:00,23.4,18.4,29.79,West,267,9.0,18.0,81,0.00,,,0.00,VWS V14.01,2013-02-12 15:59:00,
2013-02-12 10:00:00,23.5,18.5,29.79,West,267,12.0,19.0,81,0.00,,,0.00,VWS V14.01,2013-02-12 16:00:00,
2013-02-12 10:04:00,23.8,18.8,29.79,West,265,8.0,16.0,81,0.00,,,0.00,VWS V14.01,2013-02-12 16:04:00,
2013-02-12 10:09:00,24.2,18.9,29.79,West,277,5.0,16.0,80,0.00,,,0.00,VWS V14.01,2013-02-12 16:09:00,
2013-02-12 10:14:00,24.4,19.0,29.79,WNW,295,14.0,22.0,80,0.00,,,0.00,VWS V14.01,2013-02-12 16:14:00,
2013-02-12 10:15:00,24.4,19.0,29.79,West,276,10.0,22.0,80,0.00,,,0.00,VWS V14.01,2013-02-12 16:15:00,
2013-02-12 10:19:00,24.5,19.1,29.79,West,269,14.0,17.0,80,0.00,,,0.00,VWS V14.01,2013-02-12 16:19:00,
2013-02-12 10:24:00,24.6,18.9,29.80,West,280,8.0,17.0,79,0.00,,,0.00,VWS V14.01,2013-02-12 16:24:00,
2013-02-12 10:29:00,24.5,19.1,29.80,WNW,293,10.0,17.0,80,0.00,,,0.00,VWS V14.01,2013-02-12 16:29:00,
2013-02-12 10:30:00,24.5,19.1,29.80,NW,304,10.0,17.0,80,0.00,,,0.00,VWS V14.01,2013-02-12 16:30:00,
2013-02-12 10:34:00,24.5,19.1,29.80,WSW,245,11.0,19.0,80,0.00,,,0.00,VWS V14.01,2013-02-12 16:34:00,
2013-02-12 10:39:00,24.6,19.5,29.80,WNW,299,10.0,19.0,81,0.00,,,0.00,VWS V14.01,2013-02-12 16:39:00,
2013-02-12 10:44:00,24.9,19.8,29.80,NW,304,9.0,19.0,81,0.00,,,0.00,VWS V14.01,2013-02-12 16:44:00,
2013-02-12 10:45:00,25.0,19.9,29.80,WNW,293,14.0,19.0,81,0.00,,,0.00,VWS V14.01,2013-02-12 16:45:00,
2013-02-12 10:49:00,25.1,20.0,29.80,NW,317,9.0,14.0,81,0.00,,,0.00,VWS V14.01,2013-02-12 16:49:00,
2013-02-12 10:54:00,25.4,20.3,29.80,WNW,300,8.0,16.0,81,0.00,,,0.00,VWS V14.01,2013-02-12 16:54:00,
2013-02-12 10:59:00,25.9,20.8,29.80,WNW,287,7.0,16.0,81,0.00,,,0.00,VWS V14.01,2013-02-12 16:59:00,
2013-02-12 11:00:00,26.1,21.0,29.80,NW,319,9.0,16.0,81,0.00,,,0.00,VWS V14.01,2013-02-12 17:00:00,
2013-02-12 11:04:00,26.5,21.4,29.81,WNW,296,7.0,16.0,81,0.00,,,0.00,VWS V14.01,2013-02-12 17:04:00,
2013-02-12 11:09:00,26.8,21.7,29.80,West,271,9.0,16.0,81,0.00,,,0.00,VWS V14.01,2013-02-12 17:09:00,
2013-02-12 11:14:00,26.9,21.5,29.80,NW,306,11.0,16.0,80,0.00,,,0.00,VWS V14.01,2013-02-12 17:14:00,
2013-02-12 11:15:00,27.0,21.9,29.80,NW,304,9.0,16.0,81,0.00,,,0.00,VWS V14.01,2013-02-12 17:15:00,
2013-02-12 11:19:00,27.4,22.0,29.81,West,263,10.0,14.0,80,0.00,,,0.00,VWS V14.01,2013-02-12 17:19:00,
2013-02-12 11:24:00,27.7,22.3,29.80,West,281,10.0,14.0,80,0.00,,,0.00,VWS V14.01,2013-02-12 17:24:00,
2013-02-12 11:29:00,28.0,22.2,29.81,WNW,303,9.0,14.0,79,0.00,,,0.00,VWS V14.01,2013-02-12 17:29:00,
2013-02-12 11:30:00,28.1,22.4,29.80,NW,307,12.0,14.0,79,0.00,,,0.00,VWS V14.01,2013-02-12 17:30:00,
2013-02-12 11:34:00,28.2,22.5,29.81,NW,318,10.0,13.0,79,0.00,,,0.00,VWS V14.01,2013-02-12 17:34:00,
2013-02-12 11:39:00,28.4,22.6,29.81,NW,315,8.0,16.0,79,0.00,,,0.00,VWS V14.01,2013-02-12 17:39:00,
2013-02-12 11:44:00,28.4,22.6,29.81,WNW,302,11.0,17.0,79,0.00,,,0.00,VWS V14.01,2013-02-12 17:44:00,
2013-02-12 11:45:00,28.4,22.6,29.81,WNW,298,8.0,17.0,79,0.00,,,0.00,VWS V14.01,2013-02-12 17:45:00,
2013-02-12 11:49:00,28.7,22.9,29.81,WNW,293,6.0,12.0,79,0.00,,,0.00,VWS V14.01,2013-02-12 17:49:00,
2013-02-12 11:54:00,29.0,23.2,29.81,West,268,9.0,13.0,79,0.00,,,0.00,VWS V14.01,2013-02-12 17:54:00,
2013-02-12 11:59:00,29.2,23.4,29.81,WNW,294,10.0,16.0,79,0.00,,,0.00,VWS V14.01,2013-02-12 17:59:00,
2013-02-12 12:00:00,29.3,23.5,29.81,WNW,286,7.0,16.0,79,0.00,,,0.00,VWS V14.01,2013-02-12 18:00:00,
2013-02-12 12:04:00,29.6,23.5,29.80,West,268,7.0,13.0,78,0.00,,,0.00,VWS V14.01,2013-02-12 18:04:00,
2013-02-12 12:09:00,29.5,23.1,29.80,SW,235,11.0,17.0,77,0.00,,,0.00,VWS V14.01,2013-02-12 18:09:00,
2013-02-12 12:14:00,29.4,23.0,29.80,WNW,286,8.0,18.0,77,0.00,,,0.00,VWS V14.01,2013-02-12 18:14:00,
2013-02-12 12:15:00,29.5,23.1,29.80,WNW,286,11.0,18.0,77,0.00,,,0.00,VWS V14.01,2013-02-12 18:15:00,
2013-02-12 12:19:00,29.8,23.7,29.80,West,280,11.0,14.0,78,0.00,,,0.00,VWS V14.01,2013-02-12 18:19:00,
2013-02-12 12:24:00,29.9,23.5,29.80,WSW,258,14.0,16.0,77,0.00,,,0.00,VWS V14.01,2013-02-12 18:24:00,
2013-02-12 12:29:00,30.0,23.6,29.79,West,275,9.0,17.0,77,0.00,,,0.00,VWS V14.01,2013-02-12 18:29:00,
2013-02-12 12:30:00,30.0,23.6,29.79,WNW,292,9.0,18.0,77,0.00,,,0.00,VWS V14.01,2013-02-12 18:30:00,
2013-02-12 12:34:00,30.1,23.7,29.79,WSW,252,11.0,15.0,77,0.00,,,0.00,VWS V14.01,2013-02-12 18:34:00,
2013-02-12 12:39:00,30.2,23.8,29.79,West,264,5.0,15.0,77,0.00,,,0.00,VWS V14.01,2013-02-12 18:39:00,
2013-02-12 12:44:00,30.5,24.1,29.79,West,267,14.0,16.0,77,0.00,,,0.00,VWS V14.01,2013-02-12 18:44:00,
2013-02-12 12:45:00,30.5,24.1,29.79,WSW,257,7.0,16.0,77,0.00,,,0.00,VWS V14.01,2013-02-12 18:45:00,
2013-02-12 12:49:00,30.8,24.4,29.79,WNW,302,8.0,12.0,77,0.00,,,0.00,VWS V14.01,2013-02-12 18:49:00,
2013-02-12 12:54:00,31.3,24.9,29.79,NW,305,11.0,17.0,77,0.00,,,0.00,VWS V14.01,2013-02-12 18:54:00,
2013-02-12 12:59:00,31.2,24.4,29.79,NW,308,8.0,17.0,76,0.00,,,0.00,VWS V14.01,2013-02-12 18:59:00,
2013-02-12 13:00:00,31.2,24.4,29.79,WNW,291,8.0,17.0,76,0.00,,,0.00,VWS V14.01,2013-02-12 19:00:00,
2013-02-12 13:04:00,31.0,24.2,29.79,WNW,283,5.0,14.0,76,0.00,,,0.00,VWS V14.01,2013-02-12 19:04:00,
2013-02-12 13:09:00,31.0,24.2,29.78,West,277,4.0,14.0,76,0.00,,,0.00,VWS V14.01,2013-02-12 19:09:00,
2013-02-12 13:14:00,31.3,24.5,29.78,West,276,11.0,19.0,76,0.00,,,0.00,VWS V14.01,2013-02-12 19:14:00,
2013-02-12 13:15:00,31.3,24.5,29.78,WSW,258,10.0,19.0,76,0.00,,,0.00,VWS V14.01,2013-02-12 19:15:00,
2013-02-12 13:19:00,31.4,24.3,29.77,WNW,287,10.0,16.0,75,0.00,,,0.00,VWS V14.01,2013-02-12 19:19:00,
2013-02-12 13:24:00,31.7,24.9,29.77,WNW,288,9.0,16.0,76,0.00,,,0.00,VWS V14.01,2013-02-12 19:24:00,
2013-02-12 13:29:00,31.8,24.7,29.77,West,279,8.0,16.0,75,0.00,,,0.00,VWS V14.01,2013-02-12 19:29:00,
2013-02-12 13:30:00,31.9,24.8,29.77,WNW,284,11.0,16.0,75,0.00,,,0.00,VWS V14.01,2013-02-12 19:30:00,
2013-02-12 13:34:00,32.1,25.0,29.77,WNW,294,13.0,16.0,75,0.00,,,0.00,VWS V14.01,2013-02-12 19:34:00,
2013-02-12 13:39:00,32.4,25.0,29.77,West,278,8.0,19.0,74,0.00,,,0.00,VWS V14.01,2013-02-12 19:39:00,
2013-02-12 13:44:00,32.5,25.0,29.77,WNW,301,9.0,19.0,74,0.00,,,0.00,VWS V14.01,2013-02-12 19:44:00,
2013-02-12 13:45:00,32.5,25.0,29.77,West,277,11.0,19.0,74,0.00,,,0.00,VWS V14.01,2013-02-12 19:45:00,
2013-02-12 13:49:00,32.5,25.0,29.77,West,268,8.0,16.0,74,0.00,,,0.00,VWS V14.01,2013-02-12 19:49:00,
2013-02-12 13:54:00,32.4,25.3,29.77,West,266,4.0,16.0,75,0.00,,,0.00,VWS V14.01,2013-02-12 19:54:00,
2013-02-12 13:59:00,32.2,25.1,29.77,WSW,248,6.0,16.0,75,0.00,,,0.00,VWS V14.01,2013-02-12 19:59:00,
2013-02-12 14:00:00,32.3,25.5,29.77,West,278,6.0,16.0,76,0.00,,,0.00,VWS V14.01,2013-02-12 20:00:00,
2013-02-12 14:04:00,32.5,25.7,29.77,WSW,256,5.0,14.0,76,0.00,,,0.00,VWS V14.01,2013-02-12 20:04:00,
2013-02-12 14:09:00,32.5,25.4,29.77,West,280,10.0,18.0,75,0.00,,,0.00,VWS V14.01,2013-02-12 20:09:00,
2013-02-12 14:14:00,32.4,25.3,29.77,West,266,5.0,18.0,75,0.00,,,0.00,VWS V14.01,2013-02-12 20:14:00,
2013-02-12 14:15:00,32.4,25.3,29.78,WNW,287,9.0,18.0,75,0.00,,,0.00,VWS V14.01,2013-02-12 20:15:00,
2013-02-12 14:19:00,32.6,25.8,29.77,WNW,286,5.0,14.0,76,0.00,,,0.00,VWS V14.01,2013-02-12 20:19:00,
2013-02-12 14:24:00,32.7,25.6,29.77,WNW,302,10.0,16.0,75,0.00,,,0.00,VWS V14.01,2013-02-12 20:24:00,
2013-02-12 14:29:00,32.6,25.5,29.77,West,271,8.0,16.0,75,0.00,,,0.00,VWS V14.01,2013-02-12 20:29:00,
2013-02-12 14:30:00,32.5,25.4,29.77,West,264,6.0,16.0,75,0.00,,,0.00,VWS V14.01,2013-02-12 20:30:00,
2013-02-12 14:34:00,32.6,25.8,29.76,West,266,10.0,13.0,76,0.00,,,0.00,VWS V14.01,2013-02-12 20:34:00,
2013-02-12 14:39:00,32.5,25.7,29.77,West,275,4.0,17.0,76,0.00,,,0.00,VWS V14.01,2013-02-12 20:39:00,
2013-02-12 14:44:00,32.6,25.8,29.76,WSW,258,8.0,17.0,76,0.00,,,0.00,VWS V14.01,2013-02-12 20:44:00,
2013-02-12 14:45:00,32.7,25.9,29.77,West,275,4.0,17.0,76,0.00,,,0.00,VWS V14.01,2013-02-12 20:45:00,
2013-02-12 14:49:00,32.9,26.1,29.76,West,278,5.0,18.0,76,0.00,,,0.00,VWS V14.01,2013-02-12 20:49:00,
2013-02-12 14:54:00,33.0,26.2,29.76,WSW,257,12.0,19.0,76,0.00,,,0.00,VWS V14.01,2013-02-12 20:54:00,
2013-02-12 14:59:00,33.1,26.3,29.77,WNW,303,14.0,20.0,76,0.00,,,0.00,VWS V14.01,2013-02-12 20:59:00,
2013-02-12 15:00:00,33.2,26.4,29.77,WNW,299,8.0,20.0,76,0.00,,,0.00,VWS V14.01,2013-02-12 21:00:00,
2013-02-12 15:04:00,33.3,26.5,29.76,WNW,288,8.0,14.0,76,0.00,,,0.00,VWS V14.01,2013-02-12 21:04:00,
2013-02-12 15:09:00,33.1,26.3,29.77,WNW,298,5.0,20.0,76,0.00,,,0.00,VWS V14.01,2013-02-12 21:09:00,
2013-02-12 15:14:00,32.8,26.0,29.76,WNW,282,12.0,20.0,76,0.00,,,0.00,VWS V14.01,2013-02-12 21:14:00,
2013-02-12 15:15:00,32.8,26.3,29.77,WNW,292,8.0,20.0,77,0.00,,,0.00,VWS V14.01,2013-02-12 21:15:00,
2013-02-12 15:19:00,32.8,26.3,29.76,WSW,257,10.0,11.0,77,0.00,,,0.00,VWS V14.01,2013-02-12 21:19:00,
2013-02-12 15:24:00,33.1,26.6,29.76,West,281,7.0,14.0,77,0.00,,,0.00,VWS V14.01,2013-02-12 21:24:00,
2013-02-12 15:29:00,33.3,26.8,29.76,West,280,6.0,15.0,77,0.00,,,0.00,VWS V14.01,2013-02-12 21:29:00,
2013-02-12 15:30:00,33.3,26.8,29.76,WNW,286,5.0,15.0,77,0.00,,,0.00,VWS V14.01,2013-02-12 21:30:00,
2013-02-12 15:34:00,33.4,26.9,29.76,WSW,252,15.0,19.0,77,0.00,,,0.00,VWS V14.01,2013-02-12 21:34:00,
2013-02-12 15:39:00,33.4,26.9,29.76,WSW,253,15.0,19.0,77,0.00,,,0.00,VWS V14.01,2013-02-12 21:39:00,
2013-02-12 15:44:00,33.5,27.0,29.76,West,275,11.0,19.0,77,0.00,,,0.00,VWS V14.01,2013-02-12 21:44:00,
2013-02-12 15:45:00,33.5,27.0,29.76,WNW,292,8.0,19.0,77,0.00,,,0.00,VWS V14.01,2013-02-12 21:45:00,
2013-02-12 15:49:00,33.7,27.2,29.77,WNW,284,6.0,13.0,77,0.00,,,0.00,VWS V14.01,2013-02-12 21:49:00,
2013-02-12 15:54:00,33.8,27.3,29.77,WNW,297,10.0,17.0,77,0.00,,,0.00,VWS V14.01,2013-02-12 21:54:00,
2013-02-12 15:59:00,33.8,27.3,29.77,WNW,287,9.0,17.0,77,0.00,,,0.00,VWS V14.01,2013-02-12 21:59:00,
2013-02-12 16:00:00,33.8,27.3,29.77,WNW,282,8.0,17.0,77,0.00,,,0.00,VWS V14.01,2013-02-12 22:00:00,
2013-02-12 16:04:00,33.9,27.4,29.77,WSW,250,11.0,14.0,77,0.00,,,0.00,VWS V14.01,2013-02-12 22:04:00,
2013-02-12 16:09:00,33.9,27.4,29.77,NW,306,16.0,18.0,77,0.00,,,0.00,VWS V14.01,2013-02-12 22:09:00,
2013-02-12 16:14:00,33.8,27.6,29.77,WNW,302,12.0,18.0,78,0.00,,,0.00,VWS V14.01,2013-02-12 22:14:00,
2013-02-12 16:15:00,33.8,27.6,29.77,NW,306,8.0,18.0,78,0.00,,,0.00,VWS V14.01,2013-02-12 22:15:00,
2013-02-12 16:19:00,33.8,27.6,29.77,NW,313,7.0,15.0,78,0.00,,,0.00,VWS V14.01,2013-02-12 22:19:00,
2013-02-12 16:24:00,33.7,27.5,29.77,NW,309,12.0,19.0,78,0.00,,,0.00,VWS V14.01,2013-02-12 22:24:00,
2013-02-12 16:29:00,33.7,27.8,29.77,NW,315,8.0,19.0,79,0.00,,,0.00,VWS V14.01,2013-02-12 22:29:00,
2013-02-12 16:30:00,33.7,27.8,29.77,NW,305,8.0,19.0,79,0.00,,,0.00,VWS V14.01,2013-02-12 22:30:00,
2013-02-12 16:34:00,33.6,27.7,29.77,NW,307,11.0,16.0,79,0.00,,,0.00,VWS V14.01,2013-02-12 22:34:00,
2013-02-12 16:39:00,33.6,27.7,29.76,NW,304,11.0,18.0,79,0.00,,,0.00,VWS V14.01,2013-02-12 22:39:00,
2013-02-12 16:44:00,33.7,27.8,29.76,NW,311,10.0,18.0,79,0.00,,,0.00,VWS V14.01,2013-02-12 22:44:00,
2013-02-12 16:45:00,33.7,27.8,29.76,WNW,300,13.0,18.0,79,0.00,,,0.00,VWS V14.01,2013-02-12 22:45:00,
2013-02-12 16:49:00,33.8,27.6,29.76,NW,308,9.0,14.0,78,0.00,,,0.00,VWS V14.01,2013-02-12 22:49:00,
2013-02-12 16:54:00,33.9,27.7,29.76,WNW,286,8.0,14.0,78,0.00,,,0.00,VWS V14.01,2013-02-12 22:54:00,
2013-02-12 16:59:00,33.9,27.7,29.76,WNW,297,9.0,14.0,78,0.00,,,0.00,VWS V14.01,2013-02-12 22:59:00,
2013-02-12 17:00:00,33.9,27.7,29.76,West,279,6.0,14.0,78,0.00,,,0.00,VWS V14.01,2013-02-12 23:00:00,
2013-02-12 17:04:00,33.9,27.7,29.76,WNW,293,4.0,10.0,78,0.00,,,0.00,VWS V14.01,2013-02-12 23:04:00,
2013-02-12 17:09:00,33.8,27.6,29.76,NW,311,5.0,10.0,78,0.00,,,0.00,VWS V14.01,2013-02-12 23:09:00,
2013-02-12 17:14:00,33.6,27.7,29.76,NW,309,7.0,10.0,79,0.00,,,0.00,VWS V14.01,2013-02-12 23:14:00,
2013-02-12 17:15:00,33.6,27.7,29.76,NW,307,6.0,10.0,79,0.00,,,0.00,VWS V14.01,2013-02-12 23:15:00,
2013-02-12 17:19:00,33.5,27.6,29.76,NW,313,5.0,11.0,79,0.00,,,0.00,VWS V14.01,2013-02-12 23:19:00,
2013-02-12 17:24:00,33.5,27.6,29.76,NW,319,5.0,11.0,79,0.00,,,0.00,VWS V14.01,2013-02-12 23:24:00,
2013-02-12 17:29:00,33.5,27.6,29.76,NW,317,7.0,12.0,79,0.00,,,0.00,VWS V14.01,2013-02-12 23:29:00,
2013-02-12 17:30:00,33.5,27.6,29.76,NW,311,5.0,12.0,79,0.00,,,0.00,VWS V14.01,2013-02-12 23:30:00,
2013-02-12 17:34:00,33.4,27.5,29.76,WNW,293,5.0,8.0,79,0.00,,,0.00,VWS V14.01,2013-02-12 23:34:00,
2013-02-12 17:39:00,33.4,27.8,29.76,NW,319,6.0,10.0,80,0.00,,,0.00,VWS V14.01,2013-02-12 23:39:00,
2013-02-12 17:44:00,33.4,27.8,29.76,WNW,296,4.0,10.0,80,0.00,,,0.00,VWS V14.01,2013-02-12 23:44:00,
2013-02-12 17:45:00,33.4,27.8,29.76,WNW,296,1.0,10.0,80,0.00,,,0.00,VWS V14.01,2013-02-12 23:45:00,
2013-02-12 17:50:00,33.4,27.8,29.76,West,272,6.0,7.0,80,0.00,,,0.00,VWS V14.01,2013-02-12 23:50:00,
2013-02-12 17:54:00,33.3,27.7,29.75,West,272,3.0,7.0,80,0.00,,,0.00,VWS V14.01,2013-02-12 23:54:00,
2013-02-12 17:59:00,33.2,27.6,29.75,WNW,289,6.0,9.0,80,0.00,,,0.00,VWS V14.01,2013-02-12 23:59:00,
2013-02-12 18:00:00,33.1,27.5,29.75,WNW,289,4.0,9.0,80,0.00,,,0.00,VWS V14.01,2013-02-13 00:00:00,
2013-02-12 18:04:00,33.0,27.4,29.75,WNW,289,1.0,12.0,80,0.00,,,0.00,VWS V14.01,2013-02-13 00:04:00,
2013-02-12 18:09:00,33.0,27.4,29.75,WNW,286,7.0,12.0,80,0.00,,,0.00,VWS V14.01,2013-02-13 00:09:00,
2013-02-12 18:14:00,33.0,27.4,29.75,West,273,5.0,12.0,80,0.00,,,0.00,VWS V14.01,2013-02-13 00:14:00,
2013-02-12 18:15:00,33.0,27.4,29.75,West,273,3.0,12.0,80,0.00,,,0.00,VWS V14.01,2013-02-13 00:15:00,
2013-02-12 18:19:00,33.1,27.5,29.75,West,263,11.0,14.0,80,0.00,,,0.00,VWS V14.01,2013-02-13 00:19:00,
2013-02-12 18:24:00,33.3,27.4,29.75,West,259,10.0,14.0,79,0.00,,,0.00,VWS V14.01,2013-02-13 00:24:00,
2013-02-12 18:29:00,33.3,27.1,29.75,West,275,9.0,14.0,78,0.00,,,0.00,VWS V14.01,2013-02-13 00:29:00,
2013-02-12 18:30:00,33.3,27.1,29.75,West,275,2.0,14.0,78,0.00,,,0.00,VWS V14.01,2013-02-13 00:30:00,
2013-02-12 18:34:00,33.2,27.0,29.75,WSW,252,3.0,10.0,78,0.00,,,0.00,VWS V14.01,2013-02-13 00:34:00,
2013-02-12 18:39:00,33.0,26.8,29.75,WSW,257,1.0,10.0,78,0.00,,,0.00,VWS V14.01,2013-02-13 00:39:00,
2013-02-12 18:44:00,32.9,26.7,29.75,WSW,256,2.0,10.0,78,0.00,,,0.00,VWS V14.01,2013-02-13 00:44:00,
2013-02-12 18:45:00,32.9,26.7,29.75,WSW,256,2.0,10.0,78,0.00,,,0.00,VWS V14.01,2013-02-13 00:45:00,
2013-02-12 18:49:00,32.4,26.5,29.75,West,272,3.0,9.0,79,0.00,,,0.00,VWS V14.01,2013-02-13 00:49:00,
2013-02-12 18:54:00,32.1,26.5,29.75,WSW,252,8.0,12.0,80,0.00,,,0.00,VWS V14.01,2013-02-13 00:54:00,
2013-02-12 18:59:00,31.9,26.4,29.75,WSW,254,7.0,14.0,80,0.00,,,0.00,VWS V14.01,2013-02-13 00:59:00,
2013-02-12 19:00:00,31.9,26.4,29.75,WSW,258,9.0,14.0,80,0.00,,,0.00,VWS V14.01,2013-02-13 01:00:00,
2013-02-12 19:04:00,32.1,26.5,29.75,WSW,244,11.0,13.0,80,0.00,,,0.00,VWS V14.01,2013-02-13 01:04:00,
2013-02-12 19:09:00,32.3,26.7,29.75,WSW,243,11.0,16.0,80,0.00,,,0.00,VWS V14.01,2013-02-13 01:09:00,
2013-02-12 19:14:00,32.1,26.5,29.75,WSW,241,10.0,16.0,80,0.00,,,0.00,VWS V14.01,2013-02-13 01:14:00,
2013-02-12 19:15:00,32.1,26.5,29.75,West,259,11.0,16.0,80,0.00,,,0.00,VWS V14.01,2013-02-13 01:15:00,
2013-02-12 19:19:00,32.1,26.9,29.75,WSW,249,15.0,18.0,81,0.00,,,0.00,VWS V14.01,2013-02-13 01:19:00,
2013-02-12 19:24:00,32.2,27.0,29.75,WSW,252,11.0,18.0,81,0.00,,,0.00,VWS V14.01,2013-02-13 01:24:00,
2013-02-12 19:29:00,32.3,26.7,29.75,WSW,244,6.0,19.0,80,0.00,,,0.00,VWS V14.01,2013-02-13 01:29:00,
2013-02-12 19:30:00,32.4,26.8,29.75,WSW,242,6.0,19.0,80,0.00,,,0.00,VWS V14.01,2013-02-13 01:30:00,
2013-02-12 19:34:00,32.6,27.0,29.75,West,259,18.0,18.0,80,0.00,,,0.00,VWS V14.01,2013-02-13 01:34:00,
2013-02-12 19:39:00,32.6,26.7,29.75,WSW,250,8.0,18.0,79,0.00,,,0.00,VWS V14.01,2013-02-13 01:39:00,
2013-02-12 19:44:00,32.1,26.2,29.75,WSW,249,9.0,18.0,79,0.00,,,0.00,VWS V14.01,2013-02-13 01:44:00,
2013-02-12 19:45:00,32.1,26.2,29.75,WSW,250,6.0,18.0,79,0.00,,,0.00,VWS V14.01,2013-02-13 01:45:00,
2013-02-12 19:49:00,31.8,26.0,29.75,West,263,5.0,13.0,79,0.00,,,0.00,VWS V14.01,2013-02-13 01:49:00,
2013-02-12 19:54:00,31.9,26.4,29.75,WSW,257,11.0,18.0,80,0.00,,,0.00,VWS V14.01,2013-02-13 01:54:00,
2013-02-12 19:59:00,31.7,26.2,29.75,West,259,6.0,18.0,80,0.00,,,0.00,VWS V14.01,2013-02-13 01:59:00,
2013-02-12 20:00:00,31.7,26.2,29.75,WSW,257,8.0,18.0,80,0.00,,,0.00,VWS V14.01,2013-02-13 02:00:00,
2013-02-12 20:04:00,31.5,26.0,29.74,WSW,240,11.0,16.0,80,0.00,,,0.00,VWS V14.01,2013-02-13 02:04:00,
2013-02-12 20:09:00,31.4,26.2,29.74,West,268,3.0,17.0,81,0.00,,,0.00,VWS V14.01,2013-02-13 02:09:00,
2013-02-12 20:14:00,31.6,26.4,29.73,WSW,240,14.0,17.0,81,0.00,,,0.00,VWS V14.01,2013-02-13 02:14:00,
2013-02-12 20:15:00,31.7,26.5,29.73,WSW,244,16.0,17.0,81,0.00,,,0.00,VWS V14.01,2013-02-13 02:15:00,
2013-02-12 20:19:00,31.9,26.6,29.73,SW,234,7.0,16.0,81,0.00,,,0.00,VWS V14.01,2013-02-13 02:19:00,
2013-02-12 20:24:00,32.0,26.5,29.73,WSW,238,9.0,17.0,80,0.00,,,0.00,VWS V14.01,2013-02-13 02:24:00,
2013-02-12 20:29:00,31.9,26.4,29.73,WSW,244,7.0,17.0,80,0.00,,,0.00,VWS V14.01,2013-02-13 02:29:00,
2013-02-12 20:30:00,31.7,26.2,29.73,WSW,250,5.0,17.0,80,0.00,,,0.00,VWS V14.01,2013-02-13 02:30:00,
2013-02-12 20:34:00,31.4,25.9,29.72,WSW,249,14.0,17.0,80,0.00,,,0.00,VWS V14.01,2013-02-13 02:34:00,
2013-02-12 20:39:00,31.3,26.1,29.72,WSW,247,11.0,18.0,81,0.00,,,0.00,VWS V14.01,2013-02-13 02:39:00,
2013-02-12 20:44:00,31.4,26.2,29.72,WSW,242,10.0,18.0,81,0.00,,,0.00,VWS V14.01,2013-02-13 02:44:00,
2013-02-12 20:45:00,31.4,26.2,29.72,WSW,241,9.0,18.0,81,0.00,,,0.00,VWS V14.01,2013-02-13 02:45:00,
2013-02-12 20:49:00,31.3,26.1,29.72,SW,234,13.0,16.0,81,0.00,,,0.00,VWS V14.01,2013-02-13 02:49:00,
2013-02-12 20:54:00,31.2,26.3,29.71,WSW,243,11.0,16.0,82,0.00,,,0.00,VWS V14.01,2013-02-13 02:54:00,
2013-02-12 20:59:00,31.1,26.2,29.71,SW,236,8.0,17.0,82,0.00,,,0.00,VWS V14.01,2013-02-13 02:59:00,
2013-02-12 21:00:00,31.1,26.2,29.71,SW,231,7.0,17.0,82,0.00,,,0.00,VWS V14.01,2013-02-13 03:00:00,
2013-02-12 21:04:00,31.2,26.3,29.71,WSW,237,14.0,17.0,82,0.00,,,0.00,VWS V14.01,2013-02-13 03:04:00,
2013-02-12 21:09:00,31.2,26.3,29.71,SW,236,7.0,17.0,82,0.00,,,0.00,VWS V14.01,2013-02-13 03:09:00,
2013-02-12 21:14:00,31.3,26.4,29.71,WSW,239,8.0,17.0,82,0.00,,,0.00,VWS V14.01,2013-02-13 03:14:00,
2013-02-12 21:15:00,31.3,26.4,29.71,WSW,245,7.0,17.0,82,0.00,,,0.00,VWS V14.01,2013-02-13 03:15:00,
2013-02-12 21:19:00,31.3,26.4,29.70,WSW,252,5.0,15.0,82,0.00,,,0.00,VWS V14.01,2013-02-13 03:19:00,
2013-02-12 21:24:00,31.7,26.8,29.70,WSW,250,14.0,18.0,82,0.00,,,0.00,VWS V14.01,2013-02-13 03:24:00,
2013-02-12 21:29:00,31.9,27.0,29.70,WSW,254,8.0,18.0,82,0.00,,,0.00,VWS V14.01,2013-02-13 03:29:00,
2013-02-12 21:30:00,31.9,26.6,29.70,WSW,252,9.0,18.0,81,0.00,,,0.00,VWS V14.01,2013-02-13 03:30:00,
2013-02-12 21:34:00,31.8,26.6,29.70,WSW,240,12.0,15.0,81,0.00,,,0.00,VWS V14.01,2013-02-13 03:34:00,
2013-02-12 21:39:00,31.6,26.4,29.70,WSW,250,6.0,15.0,81,0.00,,,0.00,VWS V14.01,2013-02-13 03:39:00,
2013-02-12 21:44:00,31.4,26.2,29.70,WSW,249,7.0,15.0,81,0.00,,,0.00,VWS V14.01,2013-02-13 03:44:00,
2013-02-12 21:45:00,31.4,26.2,29.70,West,271,5.0,15.0,81,0.00,,,0.00,VWS V14.01,2013-02-13 03:45:00,
2013-02-12 21:49:00,31.2,26.0,29.69,SW,236,8.0,13.0,81,0.00,,,0.00,VWS V14.01,2013-02-13 03:49:00,
2013-02-12 21:54:00,31.1,25.9,29.69,WSW,256,8.0,13.0,81,0.00,,,0.00,VWS V14.01,2013-02-13 03:54:00,
2013-02-12 21:59:00,31.0,25.8,29.69,WSW,253,6.0,13.0,81,0.00,,,0.00,VWS V14.01,2013-02-13 03:59:00,
2013-02-12 22:00:00,31.0,25.8,29.69,WSW,245,6.0,14.0,81,0.00,,,0.00,VWS V14.01,2013-02-13 04:00:00,
2013-02-12 22:04:00,31.0,25.8,29.69,West,260,9.0,17.0,81,0.00,,,0.00,VWS V14.01,2013-02-13 04:04:00,
2013-02-12 22:09:00,31.2,26.0,29.68,West,268,6.0,17.0,81,0.00,,,0.00,VWS V14.01,2013-02-13 04:09:00,
2013-02-12 22:14:00,31.2,26.0,29.68,West,268,7.0,17.0,81,0.00,,,0.00,VWS V14.01,2013-02-13 04:14:00,
2013-02-12 22:15:00,31.2,26.0,29.68,WNW,289,8.0,17.0,81,0.00,,,0.00,VWS V14.01,2013-02-13 04:15:00,
2013-02-12 22:19:00,31.3,26.1,29.68,WSW,246,9.0,14.0,81,0.00,,,0.00,VWS V14.01,2013-02-13 04:19:00,
2013-02-12 22:24:00,31.4,26.2,29.68,WNW,284,4.0,14.0,81,0.00,,,0.00,VWS V14.01,2013-02-13 04:24:00,
2013-02-12 22:29:00,31.1,25.9,29.68,NW,313,7.0,14.0,81,0.00,,,0.00,VWS V14.01,2013-02-13 04:29:00,
2013-02-12 22:30:00,30.9,25.7,29.68,WNW,302,5.0,14.0,81,0.00,,,0.00,VWS V14.01,2013-02-13 04:30:00,
2013-02-12 22:34:00,30.5,25.3,29.68,NW,310,7.0,10.0,81,0.00,,,0.00,VWS V14.01,2013-02-13 04:34:00,
2013-02-12 22:39:00,30.2,25.3,29.68,NW,306,11.0,11.0,82,0.00,,,0.00,VWS V14.01,2013-02-13 04:39:00,
2013-02-12 22:44:00,30.3,25.7,29.68,West,263,10.0,12.0,83,0.00,,,0.00,VWS V14.01,2013-02-13 04:44:00,
2013-02-12 22:45:00,30.3,25.7,29.68,West,269,6.0,12.0,83,0.00,,,0.00,VWS V14.01,2013-02-13 04:45:00,
2013-02-12 22:49:00,30.3,25.7,29.68,West,259,9.0,12.0,83,0.00,,,0.00,VWS V14.01,2013-02-13 04:49:00,
2013-02-12 22:54:00,30.3,25.7,29.68,WSW,251,6.0,14.0,83,0.00,,,0.00,VWS V14.01,2013-02-13 04:54:00,
2013-02-12 22:59:00,30.3,25.4,29.68,West,272,9.0,14.0,82,0.00,,,0.00,VWS V14.01,2013-02-13 04:59:00,
2013-02-12 23:00:00,30.3,25.4,29.68,WSW,238,8.0,14.0,82,0.00,,,0.00,VWS V14.01,2013-02-13 05:00:00,
2013-02-12 23:05:00,30.3,25.4,29.68,WNW,282,6.0,15.0,82,0.00,,,0.00,VWS V14.01,2013-02-13 05:05:00,
2013-02-12 23:10:00,30.1,25.2,29.68,West,265,6.0,15.0,82,0.00,,,0.00,VWS V14.01,2013-02-13 05:10:00,
2013-02-12 23:15:00,29.9,25.0,29.68,West,264,7.0,15.0,82,0.00,,,0.00,VWS V14.01,2013-02-13 05:15:00,
2013-02-12 23:20:00,29.6,24.7,29.68,WSW,253,7.0,12.0,82,0.00,,,0.00,VWS V14.01,2013-02-13 05:20:00,
2013-02-12 23:25:00,29.3,24.4,29.68,West,280,12.0,14.0,82,0.00,,,0.00,VWS V14.01,2013-02-13 05:25:00,
2013-02-12 23:30:00,29.2,24.6,29.68,West,269,4.0,15.0,83,0.00,,,0.00,VWS V14.01,2013-02-13 05:30:00,
2013-02-12 23:35:00,29.2,24.6,29.68,WSW,251,7.0,14.0,83,0.00,,,0.00,VWS V14.01,2013-02-13 05:35:00,
2013-02-12 23:40:00,29.0,24.4,29.68,WSW,255,7.0,14.0,83,0.00,,,0.00,VWS V14.01,2013-02-13 05:40:00,
2013-02-12 23:45:00,28.9,24.3,29.68,WSW,257,11.0,15.0,83,0.00,,,0.00,VWS V14.01,2013-02-13 05:45:00,
2013-02-12 23:50:00,28.8,24.2,29.67,West,267,13.0,17.0,83,0.00,,,0.00,VWS V14.01,2013-02-13 05:50:00,
2013-02-12 23:55:00,28.8,24.2,29.67,WSW,237,8.0,17.0,83,0.00,,,0.00,VWS V14.01,2013-02-13 05:55:00,